# Tabular Observed and Forecast Hydrograph Information
#
# Location: San Joaquin River - Newman (NWMC1)
#
# File Generation Time: 05/03/2026 at 08:46 AM PDT
# Data Interval: 1 Hour
#
# Most Recent Date & Time of Maximum Observed: 04/28/2026 at 09:00 AM PDT
# Maximum Observed Stage: 51.20 Feet
# Maximum Observed Flow: 1094 cfs
#
# Earliest Date & Time of Maximum Forecast: 05/05/2026 at 01:00 AM PDT
# Maximum Forecast Stage: 50.39 Feet
# Maximum Forecast Flow: 822 cfs
#
# OBSERVED
#
# Date & Time (Local) Stage (Feet) Flow (cfs) Trend Observed Status
# ---------------------------------------------------------------------------------
04/28/2026 08 AM PDT 51.20 1094 Normal
04/28/2026 09 AM PDT 51.20 1094 0 Normal
04/28/2026 10 AM PDT 51.19 1090 - Normal
04/28/2026 11 AM PDT 51.18 1086 - Normal
04/28/2026 12 PM PDT 51.17 1083 - Normal
04/28/2026 01 PM PDT 51.16 1079 - Normal
04/28/2026 02 PM PDT 51.15 1076 - Normal
04/28/2026 03 PM PDT 51.14 1072 - Normal
04/28/2026 04 PM PDT 51.12 1065 - Normal
04/28/2026 05 PM PDT 51.13 1069 + Normal
04/28/2026 06 PM PDT 51.12 1065 - Normal
04/28/2026 07 PM PDT 51.11 1062 - Normal
04/28/2026 08 PM PDT 51.11 1062 0 Normal
04/28/2026 09 PM PDT 51.10 1059 - Normal
04/28/2026 10 PM PDT 51.09 1055 - Normal
04/28/2026 11 PM PDT 51.09 1055 0 Normal
04/29/2026 12 AM PDT 51.08 1052 - Normal
04/29/2026 01 AM PDT 51.08 1052 0 Normal
04/29/2026 02 AM PDT 51.07 1048 - Normal
04/29/2026 03 AM PDT 51.07 1048 0 Normal
04/29/2026 04 AM PDT 51.06 1045 - Normal
04/29/2026 05 AM PDT 51.05 1041 - Normal
04/29/2026 06 AM PDT 51.03 1034 - Normal
04/29/2026 07 AM PDT 51.03 1034 0 Normal
04/29/2026 08 AM PDT 51.02 1031 - Normal
04/29/2026 09 AM PDT 51.01 1027 - Normal
04/29/2026 10 AM PDT 50.99 1020 - Normal
04/29/2026 11 AM PDT 50.98 1017 - Normal
04/29/2026 12 PM PDT 50.97 1014 - Normal
04/29/2026 01 PM PDT 50.96 1010 - Normal
04/29/2026 02 PM PDT 50.95 1007 - Normal
04/29/2026 03 PM PDT 50.94 1003 - Normal
04/29/2026 04 PM PDT 50.92 997 - Normal
04/29/2026 05 PM PDT 50.92 997 0 Normal
04/29/2026 06 PM PDT 50.92 997 0 Normal
04/29/2026 07 PM PDT 50.90 990 - Normal
04/29/2026 08 PM PDT 50.89 986 - Normal
04/29/2026 09 PM PDT 50.88 983 - Normal
04/29/2026 10 PM PDT 50.87 980 - Normal
04/29/2026 11 PM PDT 50.86 976 - Normal
04/30/2026 12 AM PDT 50.85 973 - Normal
04/30/2026 01 AM PDT 50.84 969 - Normal
04/30/2026 02 AM PDT 50.83 966 - Normal
04/30/2026 03 AM PDT 50.82 963 - Normal
04/30/2026 04 AM PDT 50.80 956 - Normal
04/30/2026 05 AM PDT 50.79 953 - Normal
04/30/2026 06 AM PDT 50.78 949 - Normal
04/30/2026 07 AM PDT 50.77 946 - Normal
04/30/2026 08 AM PDT 50.76 943 - Normal
04/30/2026 09 AM PDT 50.75 939 - Normal
04/30/2026 10 AM PDT 50.73 933 - Normal
04/30/2026 11 AM PDT 50.73 933 0 Normal
04/30/2026 12 PM PDT 50.72 929 - Normal
04/30/2026 01 PM PDT 50.71 926 - Normal
04/30/2026 02 PM PDT 50.70 923 - Normal
04/30/2026 03 PM PDT 50.68 916 - Normal
04/30/2026 04 PM PDT 50.68 916 0 Normal
04/30/2026 05 PM PDT 50.68 916 0 Normal
04/30/2026 06 PM PDT 50.67 913 - Normal
04/30/2026 07 PM PDT 50.65 906 - Normal
04/30/2026 08 PM PDT 50.64 903 - Normal
04/30/2026 09 PM PDT 50.63 899 - Normal
04/30/2026 10 PM PDT 50.62 896 - Normal
04/30/2026 11 PM PDT 50.60 890 - Normal
05/01/2026 12 AM PDT 50.59 886 - Normal
05/01/2026 01 AM PDT 50.58 883 - Normal
05/01/2026 02 AM PDT 50.57 880 - Normal
05/01/2026 03 AM PDT 50.56 877 - Normal
05/01/2026 04 AM PDT 50.56 877 0 Normal
05/01/2026 05 AM PDT 50.55 873 - Normal
05/01/2026 06 AM PDT 50.55 873 0 Normal
05/01/2026 07 AM PDT 50.54 870 - Normal
05/01/2026 08 AM PDT 50.54 870 0 Normal
05/01/2026 09 AM PDT 50.53 867 - Normal
05/01/2026 10 AM PDT 50.53 867 0 Normal
05/01/2026 11 AM PDT 50.52 864 - Normal
05/01/2026 12 PM PDT 50.51 860 - Normal
05/01/2026 01 PM PDT 50.51 860 0 Normal
05/01/2026 02 PM PDT 50.49 854 - Normal
05/01/2026 03 PM PDT 50.49 854 0 Normal
05/01/2026 04 PM PDT 50.48 851 - Normal
05/01/2026 05 PM PDT 50.48 851 0 Normal
05/01/2026 06 PM PDT 50.47 847 - Normal
05/01/2026 07 PM PDT 50.47 847 0 Normal
05/01/2026 08 PM PDT 50.45 841 - Normal
05/01/2026 09 PM PDT 50.44 838 - Normal
05/01/2026 10 PM PDT 50.44 838 0 Normal
05/01/2026 11 PM PDT 50.43 835 - Normal
05/02/2026 12 AM PDT 50.42 831 - Normal
05/02/2026 01 AM PDT 50.41 828 - Normal
05/02/2026 02 AM PDT 50.41 828 0 Normal
05/02/2026 03 AM PDT 50.40 825 - Normal
05/02/2026 04 AM PDT 50.40 825 0 Normal
05/02/2026 05 AM PDT 50.39 822 - Normal
05/02/2026 06 AM PDT 50.39 822 0 Normal
05/02/2026 07 AM PDT 50.38 819 - Normal
05/02/2026 08 AM PDT 50.38 819 0 Normal
05/02/2026 09 AM PDT 50.38 819 0 Normal
05/02/2026 10 AM PDT 50.38 819 0 Normal
05/02/2026 11 AM PDT 50.38 819 0 Normal
05/02/2026 12 PM PDT 50.37 815 - Normal
05/02/2026 01 PM PDT 50.36 812 - Normal
05/02/2026 02 PM PDT 50.36 812 0 Normal
05/02/2026 03 PM PDT 50.36 812 0 Normal
05/02/2026 04 PM PDT 50.36 812 0 Normal
05/02/2026 05 PM PDT 50.36 812 0 Normal
05/02/2026 06 PM PDT 50.36 812 0 Normal
05/02/2026 07 PM PDT 50.36 812 0 Normal
05/02/2026 08 PM PDT 50.35 809 - Normal
05/02/2026 09 PM PDT 50.35 809 0 Normal
05/02/2026 10 PM PDT 50.35 809 0 Normal
05/02/2026 11 PM PDT 50.35 809 0 Normal
05/03/2026 12 AM PDT 50.35 809 0 Normal
05/03/2026 01 AM PDT 50.34 806 - Normal
05/03/2026 02 AM PDT 50.35 809 + Normal
05/03/2026 03 AM PDT 50.35 809 0 Normal
05/03/2026 04 AM PDT 50.36 812 + Normal
05/03/2026 05 AM PDT 50.36 812 0 Normal
05/03/2026 06 AM PDT 50.36 812 0 Normal
05/03/2026 07 AM PDT 50.36 812 0 Normal
05/03/2026 08 AM PDT 50.37 815 + Normal
#
# FORECAST
#
# Date & Time (Local) Stage (Feet) Flow (cfs) Trend Forecast Status
# ---------------------------------------------------------------------------------
05/03/2026 09 AM PDT 50.37 815 Normal
05/03/2026 10 AM PDT 50.37 815 0 Normal
05/03/2026 11 AM PDT 50.37 815 0 Normal
05/03/2026 12 PM PDT 50.37 815 0 Normal
05/03/2026 01 PM PDT 50.37 815 0 Normal
05/03/2026 02 PM PDT 50.37 815 0 Normal
05/03/2026 03 PM PDT 50.37 815 0 Normal
05/03/2026 04 PM PDT 50.37 815 0 Normal
05/03/2026 05 PM PDT 50.37 815 0 Normal
05/03/2026 06 PM PDT 50.37 815 0 Normal
05/03/2026 07 PM PDT 50.37 815 0 Normal
05/03/2026 08 PM PDT 50.38 819 + Normal
05/03/2026 09 PM PDT 50.38 819 0 Normal
05/03/2026 10 PM PDT 50.38 819 0 Normal
05/03/2026 11 PM PDT 50.38 819 0 Normal
05/04/2026 12 AM PDT 50.38 819 0 Normal
05/04/2026 01 AM PDT 50.38 819 0 Normal
05/04/2026 02 AM PDT 50.38 819 0 Normal
05/04/2026 03 AM PDT 50.38 819 0 Normal
05/04/2026 04 AM PDT 50.38 819 0 Normal
05/04/2026 05 AM PDT 50.38 819 0 Normal
05/04/2026 06 AM PDT 50.38 819 0 Normal
05/04/2026 07 AM PDT 50.38 819 0 Normal
05/04/2026 08 AM PDT 50.38 819 0 Normal
05/04/2026 09 AM PDT 50.38 819 0 Normal
05/04/2026 10 AM PDT 50.38 819 0 Normal
05/04/2026 11 AM PDT 50.38 819 0 Normal
05/04/2026 12 PM PDT 50.38 819 0 Normal
05/04/2026 01 PM PDT 50.38 819 0 Normal
05/04/2026 02 PM PDT 50.38 819 0 Normal
05/04/2026 03 PM PDT 50.38 819 0 Normal
05/04/2026 04 PM PDT 50.38 819 0 Normal
05/04/2026 05 PM PDT 50.38 819 0 Normal
05/04/2026 06 PM PDT 50.38 819 0 Normal
05/04/2026 07 PM PDT 50.38 819 0 Normal
05/04/2026 08 PM PDT 50.38 819 0 Normal
05/04/2026 09 PM PDT 50.38 819 0 Normal
05/04/2026 10 PM PDT 50.38 819 0 Normal
05/04/2026 11 PM PDT 50.38 819 0 Normal
05/05/2026 12 AM PDT 50.38 819 0 Normal
05/05/2026 01 AM PDT 50.39 822 + Normal
05/05/2026 02 AM PDT 50.39 822 0 Normal
05/05/2026 03 AM PDT 50.39 822 0 Normal
05/05/2026 04 AM PDT 50.39 822 0 Normal
05/05/2026 05 AM PDT 50.39 822 0 Normal
05/05/2026 06 AM PDT 50.39 822 0 Normal
05/05/2026 07 AM PDT 50.39 822 0 Normal
05/05/2026 08 AM PDT 50.39 822 0 Normal
05/05/2026 09 AM PDT 50.39 822 0 Normal
05/05/2026 10 AM PDT 50.39 822 0 Normal
05/05/2026 11 AM PDT 50.39 822 0 Normal
05/05/2026 12 PM PDT 50.39 822 0 Normal
05/05/2026 01 PM PDT 50.39 822 0 Normal
05/05/2026 02 PM PDT 50.39 822 0 Normal
05/05/2026 03 PM PDT 50.39 822 0 Normal
05/05/2026 04 PM PDT 50.39 822 0 Normal
05/05/2026 05 PM PDT 50.39 822 0 Normal
05/05/2026 06 PM PDT 50.39 822 0 Normal
05/05/2026 07 PM PDT 50.39 822 0 Normal
05/05/2026 08 PM PDT 50.39 822 0 Normal
05/05/2026 09 PM PDT 50.39 822 0 Normal
05/05/2026 10 PM PDT 50.39 822 0 Normal
05/05/2026 11 PM PDT 50.39 822 0 Normal
05/06/2026 12 AM PDT 50.39 822 0 Normal
05/06/2026 01 AM PDT 50.39 822 0 Normal
05/06/2026 02 AM PDT 50.39 822 0 Normal
05/06/2026 03 AM PDT 50.39 822 0 Normal
05/06/2026 04 AM PDT 50.39 822 0 Normal
05/06/2026 05 AM PDT 50.39 822 0 Normal
05/06/2026 06 AM PDT 50.39 822 0 Normal
05/06/2026 07 AM PDT 50.39 822 0 Normal
05/06/2026 08 AM PDT 50.39 822 0 Normal
05/06/2026 09 AM PDT 50.39 822 0 Normal
05/06/2026 10 AM PDT 50.39 822 0 Normal
05/06/2026 11 AM PDT 50.39 822 0 Normal
05/06/2026 12 PM PDT 50.39 822 0 Normal
05/06/2026 01 PM PDT 50.39 822 0 Normal
05/06/2026 02 PM PDT 50.39 822 0 Normal
05/06/2026 03 PM PDT 50.38 819 - Normal
05/06/2026 04 PM PDT 50.38 819 0 Normal
05/06/2026 05 PM PDT 50.38 819 0 Normal
05/06/2026 06 PM PDT 50.38 819 0 Normal
05/06/2026 07 PM PDT 50.38 819 0 Normal
05/06/2026 08 PM PDT 50.38 819 0 Normal
05/06/2026 09 PM PDT 50.38 819 0 Normal
05/06/2026 10 PM PDT 50.38 819 0 Normal
05/06/2026 11 PM PDT 50.38 819 0 Normal
05/07/2026 12 AM PDT 50.38 819 0 Normal
05/07/2026 01 AM PDT 50.38 819 0 Normal
05/07/2026 02 AM PDT 50.38 819 0 Normal
05/07/2026 03 AM PDT 50.38 819 0 Normal
05/07/2026 04 AM PDT 50.38 819 0 Normal
05/07/2026 05 AM PDT 50.38 819 0 Normal
05/07/2026 06 AM PDT 50.38 819 0 Normal
05/07/2026 07 AM PDT 50.38 819 0 Normal
05/07/2026 08 AM PDT 50.38 819 0 Normal
05/07/2026 09 AM PDT 50.38 819 0 Normal
05/07/2026 10 AM PDT 50.38 819 0 Normal
05/07/2026 11 AM PDT 50.38 819 0 Normal
05/07/2026 12 PM PDT 50.38 819 0 Normal
05/07/2026 01 PM PDT 50.38 819 0 Normal
05/07/2026 02 PM PDT 50.38 819 0 Normal
05/07/2026 03 PM PDT 50.38 819 0 Normal
05/07/2026 04 PM PDT 50.38 819 0 Normal
05/07/2026 05 PM PDT 50.38 819 0 Normal
05/07/2026 06 PM PDT 50.38 819 0 Normal
05/07/2026 07 PM PDT 50.38 819 0 Normal
05/07/2026 08 PM PDT 50.38 819 0 Normal
05/07/2026 09 PM PDT 50.38 819 0 Normal
05/07/2026 10 PM PDT 50.38 819 0 Normal
05/07/2026 11 PM PDT 50.38 819 0 Normal
05/08/2026 12 AM PDT 50.38 819 0 Normal
05/08/2026 01 AM PDT 50.38 819 0 Normal
05/08/2026 02 AM PDT 50.38 819 0 Normal
05/08/2026 03 AM PDT 50.38 819 0 Normal
05/08/2026 04 AM PDT 50.38 819 0 Normal
05/08/2026 05 AM PDT 50.38 819 0 Normal
#
# NOTE 1: Stages are rounded to the nearest hundredth (.01) of a foot.
# NOTE 2: Flows are rounded to the nearest (1) cfs.
# NOTE 3: Trends are determined using hourly change in unrounded stage and flow.
# NOTE 4: Maximum Values are determined using unrounded stage and flow.
|